Terminal Aerodrome Forecast
Issued by NWS Sterling, VA

Current Version | Previous Version | Text Only | Print | Product List | Glossary Off
Versions: 1 2 3 4 5 6 7 8 9 10 11 12 13 14 15 16 17 18 19 20 21 22 23

000
FTUS41 KLWX 041503 AAA
TAFIAD
TAF AMD
KIAD 041503Z 0415/0518 20007KT P6SM SCT090
     FM041800 20011G17KT P6SM SCT060
     FM042200 19006KT P6SM SCT050=

USA.gov is the U.S. government's official web portal to all federal, state and local government web resources and services.